Amelia, Louisiana
Current Conditions -  °F | °C
As of 5:55 AM on Friday 21 Nov 2014 (Local Time) from KPTN Reporting Station
Overcast Overcast  
Wind Chill: 55°   Ceiling: 12000
Heat Index: 55°   Visibility: 10mi
Dew Point: 50°   Wind: 8mph
Humidity: 82%   Direction: 110°ESE
Pressure: 30.24"   Gusts: NA
Location:  29.67°N, 91.1°W
Report Text: KPTN 211155Z AUTO 11007KT 10SM SCT100 OVC120 13/10 A3024 RMK AO1 10140 20120 54000
Loading
Personal Weather Stations






























Interactive Weather Map New forecast layout! Learn more

10-Day Weather Forecast

Advertisements
Track Severe Weather on mobile